Time;durP1;ratioP1;P1;durP2;ratioP2;P2;SDS_P1;SDS_P2;PMS_P1;PMS_P2;Temp;Humidity;BMP_temperature;BMP_pressure;BME280_temperature;BME280_humidity;BME280_pressure;Samples;Min_cycle;Max_cycle;Signal;HPM_P1;HPM_P2
2024/02/27 00:01:31;;;;;;;17.50;9.90;;;;;;;10.62;53.22;94850.28;5088789;28;20028;-78
2024/02/27 00:03:59;;;;;;;18.77;11.20;;;;;;;10.65;53.17;94854.13;5087051;28;20042;-78
2024/02/27 00:06:24;;;;;;;15.95;10.00;;;;;;;10.51;53.52;94851.81;5089036;28;20172;-76
2024/02/27 00:08:50;;;;;;;14.98;10.27;;;;;;;10.51;53.40;94852.59;5088036;28;20483;-77
2024/02/27 00:11:15;;;;;;;17.55;10.80;;;;;;;10.54;53.38;94856.44;5089496;28;20116;-78
2024/02/27 00:13:40;;;;;;;15.13;9.73;;;;;;;10.44;53.73;94854.78;5086345;28;20116;-77
2024/02/27 00:16:06;;;;;;;17.80;11.05;;;;;;;10.40;54.00;94848.63;5088980;28;20028;-76
2024/02/27 00:18:31;;;;;;;17.30;10.13;;;;;;;10.44;53.89;94849.28;5088167;28;20060;-78
2024/02/27 00:20:56;;;;;;;16.25;10.95;;;;;;;10.48;54.15;94849.94;5088554;28;20020;-78
2024/02/27 00:23:22;;;;;;;24.15;12.63;;;;;;;10.48;54.17;94861.69;5088781;28;20443;-77
2024/02/27 00:25:47;;;;;;;21.60;13.75;;;;;;;10.40;54.60;94860.38;5086426;28;20020;-77
2024/02/27 00:28:13;;;;;;;20.92;13.90;;;;;;;10.35;54.61;94856.19;5088656;28;20446;-77
2024/02/27 00:30:38;;;;;;;20.27;12.85;;;;;;;10.41;54.63;94855.66;5087200;28;20443;-77
2024/02/27 00:33:04;;;;;;;19.85;12.95;;;;;;;10.50;54.28;94853.03;5088577;28;20056;-78
2024/02/27 00:35:29;;;;;;;21.55;13.00;;;;;;;10.44;54.41;94855.56;5086263;28;20020;-77
2024/02/27 00:37:56;;;;;;;19.83;12.88;;;;;;;10.57;54.27;94855.56;5088057;28;20051;-77
2024/02/27 00:40:21;;;;;;;18.42;12.40;;;;;;;10.42;54.84;94857.19;5088078;28;20031;-78
2024/02/27 00:42:46;;;;;;;21.27;12.65;;;;;;;10.34;55.27;94856.63;5087778;28;20040;-77
2024/02/27 00:45:12;;;;;;;20.98;13.27;;;;;;;10.28;55.27;94850.91;5086626;28;20111;-77
2024/02/27 00:47:37;;;;;;;18.50;13.27;;;;;;;10.33;55.27;94847.63;5087065;28;20140;-76
2024/02/27 00:50:03;;;;;;;20.73;12.45;;;;;;;10.30;55.33;94845.75;5088175;28;20032;-76
2024/02/27 00:52:28;;;;;;;20.67;12.38;;;;;;;10.43;55.02;94842.22;5087145;28;20359;-77
2024/02/27 00:54:54;;;;;;;18.15;11.93;;;;;;;10.52;54.68;94853.34;5087503;28;20111;-77
2024/02/27 00:57:19;;;;;;;18.25;12.18;;;;;;;10.49;55.05;94845.97;5086718;28;20452;-78
2024/02/27 00:59:44;;;;;;;16.25;12.07;;;;;;;10.43;54.83;94834.75;5087569;28;20032;-77
2024/02/27 01:02:10;;;;;;;15.82;11.35;;;;;;;10.51;54.71;94836.09;5087113;28;20079;-76
2024/02/27 01:04:35;;;;;;;18.98;11.00;;;;;;;10.49;54.75;94833.00;5085864;28;20476;-77
2024/02/27 01:07:01;;;;;;;20.42;11.52;;;;;;;10.48;54.87;94841.69;5087567;28;20035;-78
2024/02/27 01:09:26;;;;;;;18.02;11.30;;;;;;;10.45;55.00;94835.09;5086642;28;20101;-76
2024/02/27 01:11:51;;;;;;;16.92;10.85;;;;;;;10.43;54.95;94828.50;5088026;28;20102;-76
2024/02/27 01:14:17;;;;;;;18.38;11.55;;;;;;;10.48;54.93;94847.97;5086419;28;20028;-77
2024/02/27 01:16:42;;;;;;;17.75;11.43;;;;;;;10.55;54.73;94847.75;5087547;28;20028;-76
2024/02/27 01:19:08;;;;;;;20.40;12.25;;;;;;;10.39;54.96;94825.88;5086987;28;20047;-77
2024/02/27 01:21:34;;;;;;;18.58;11.57;;;;;;;10.44;55.12;94849.28;5086849;28;20028;-77
2024/02/27 01:23:59;;;;;;;16.02;11.73;;;;;;;10.44;55.17;94836.31;5087298;28;20039;-77
2024/02/27 01:26:25;;;;;;;18.88;11.85;;;;;;;10.46;55.08;94841.38;5086685;28;20028;-77
2024/02/27 01:28:50;;;;;;;16.45;11.00;;;;;;;10.48;54.95;94836.19;5087610;28;20027;-77
2024/02/27 01:31:16;;;;;;;20.83;13.10;;;;;;;10.48;55.06;94833.44;5085780;28;20035;-78
2024/02/27 01:33:41;;;;;;;18.92;12.68;;;;;;;10.50;55.18;94837.31;5087965;28;20028;-77
2024/02/27 01:36:07;;;;;;;16.88;11.80;;;;;;;10.50;55.29;94840.06;5085189;28;20087;-77
2024/02/27 01:38:33;;;;;;;17.95;11.43;;;;;;;10.48;55.36;94836.97;5087435;28;20415;-77
2024/02/27 01:40:58;;;;;;;18.83;11.88;;;;;;;10.52;55.36;94834.88;5089906;28;20107;-78
2024/02/27 01:43:24;;;;;;;16.13;11.98;;;;;;;10.49;55.51;94834.97;5093961;28;20020;-78
2024/02/27 01:45:52;;;;;;;16.88;12.20;;;;;;;10.38;55.79;94824.34;5091964;28;20020;-78
2024/02/27 01:48:17;;;;;;;20.90;12.75;;;;;;;10.39;55.64;94830.59;5085250;28;20346;-77
2024/02/27 01:50:45;;;;;;;20.17;12.52;;;;;;;10.42;55.79;94827.72;5087869;28;20030;-77
2024/02/27 01:53:12;;;;;;;21.45;12.75;;;;;;;10.45;55.64;94828.84;5084495;28;20543;-77
2024/02/27 01:55:39;;;;;;;19.85;14.38;;;;;;;10.42;55.71;94824.22;5085738;28;20016;-78
2024/02/27 01:58:05;;;;;;;24.52;14.18;;;;;;;10.49;55.54;94829.50;5085452;28;20128;-77
2024/02/27 02:00:31;;;;;;;23.65;14.30;;;;;;;10.55;55.58;94823.03;5086326;28;20035;-78
2024/02/27 02:02:57;;;;;;;27.02;14.25;;;;;;;10.58;55.30;94829.63;5085015;28;20040;-78
2024/02/27 02:05:22;;;;;;;25.23;15.38;;;;;;;10.55;55.65;94827.72;5084439;28;20402;-77
2024/02/27 02:07:48;;;;;;;20.17;14.20;;;;;;;10.54;55.56;94832.47;5086678;28;20115;-78
2024/02/27 02:10:13;;;;;;;21.40;15.07;;;;;;;10.52;55.61;94825.88;5085502;28;20158;-77
2024/02/27 02:12:39;;;;;;;22.92;14.45;;;;;;;10.48;55.65;94820.47;5087157;28;20027;-77
2024/02/27 02:15:05;;;;;;;22.10;14.32;;;;;;;10.45;55.71;94824.13;5085775;28;20401;-78
2024/02/27 02:17:32;;;;;;;20.27;14.32;;;;;;;10.45;55.70;94821.38;5086383;28;20085;-78
2024/02/27 02:19:57;;;;;;;22.90;14.88;;;;;;;10.44;55.90;94819.84;5086252;28;20500;-77
2024/02/27 02:22:22;;;;;;;21.25;14.02;;;;;;;10.36;56.32;94822.00;5085381;28;20565;-77
2024/02/27 02:24:48;;;;;;;22.63;14.52;;;;;;;10.26;56.46;94819.56;5086495;28;20028;-78
2024/02/27 02:27:18;;;;;;;22.45;15.00;;;;;;;10.25;56.44;94829.78;5085148;28;20125;-77
2024/02/27 02:29:43;;;;;;;20.63;14.77;;;;;;;10.30;56.47;94825.75;5085481;28;20032;-78
2024/02/27 02:32:08;;;;;;;20.83;13.98;;;;;;;10.32;56.41;94826.84;5085616;28;20047;-77
2024/02/27 02:34:34;;;;;;;19.45;12.70;;;;;;;10.37;56.25;94825.53;5086262;28;20020;-77
2024/02/27 02:36:59;;;;;;;23.17;13.15;;;;;;;10.34;56.33;94818.16;5086083;28;20148;-77
2024/02/27 02:39:24;;;;;;;18.70;13.63;;;;;;;10.40;56.36;94829.38;5085302;28;20410;-77
2024/02/27 02:41:50;;;;;;;22.80;12.95;;;;;;;10.41;56.09;94825.41;5084683;28;20137;-78
2024/02/27 02:44:15;;;;;;;18.35;13.18;;;;;;;10.41;56.04;94836.41;5085047;28;20060;-77
2024/02/27 02:46:42;;;;;;;21.65;13.63;;;;;;;10.45;56.07;94837.09;5086561;28;20097;-77
2024/02/27 02:49:08;;;;;;;19.98;12.68;;;;;;;10.48;55.81;94838.94;5085065;28;20032;-77
2024/02/27 02:51:33;;;;;;;19.52;12.77;;;;;;;10.45;55.96;94842.59;5084666;28;20032;-78
2024/02/27 02:53:59;;;;;;;20.48;13.07;;;;;;;10.37;56.16;94850.25;5085599;28;20020;-76
2024/02/27 02:56:24;;;;;;;20.95;13.27;;;;;;;10.35;56.44;94856.19;5085356;28;20020;-77
2024/02/27 02:58:49;;;;;;;20.60;14.05;;;;;;;10.37;56.38;94858.50;5086290;28;20043;-78
2024/02/27 03:01:15;;;;;;;19.27;13.30;;;;;;;10.33;56.40;94866.84;5084754;28;20032;-77
2024/02/27 03:03:40;;;;;;;19.75;13.27;;;;;;;10.21;56.81;94859.34;5084635;28;20059;-77
2024/02/27 03:06:06;;;;;;;21.15;13.23;;;;;;;10.31;56.64;94857.50;5084631;28;20104;-77
2024/02/27 03:08:31;;;;;;;22.95;12.50;;;;;;;10.26;56.90;94864.28;5084845;28;20024;-77
2024/02/27 03:10:57;;;;;;;22.88;13.98;;;;;;;10.29;56.74;94862.66;5085117;28;20040;-78
2024/02/27 03:13:22;;;;;;;18.13;13.52;;;;;;;10.20;57.04;94848.75;5085884;28;20436;-78
2024/02/27 03:15:48;;;;;;;19.20;13.40;;;;;;;10.29;56.81;94849.69;5085843;28;20434;-77
2024/02/27 03:18:13;;;;;;;22.50;12.18;;;;;;;10.15;57.09;94850.09;5084956;28;20085;-78
2024/02/27 03:20:38;;;;;;;19.85;11.82;;;;;;;10.23;57.10;94856.13;5088287;28;20123;-77
2024/02/27 03:23:04;;;;;;;20.65;12.05;;;;;;;10.31;56.76;94857.50;5087441;28;20427;-77
2024/02/27 03:25:29;;;;;;;23.20;13.48;;;;;;;10.29;56.82;94859.91;5090410;28;20019;-78
2024/02/27 03:27:54;;;;;;;21.85;13.07;;;;;;;10.27;56.92;94863.13;5088733;28;20543;-78
2024/02/27 03:30:20;;;;;;;19.58;12.38;;;;;;;10.31;57.06;94866.50;5089543;28;20450;-76
2024/02/27 03:32:45;;;;;;;17.40;12.35;;;;;;;10.31;56.79;94868.47;5088950;28;20032;-78
2024/02/27 03:35:11;;;;;;;20.77;13.23;;;;;;;10.32;56.78;94868.06;5089085;28;20031;-77
2024/02/27 03:37:37;;;;;;;18.77;11.95;;;;;;;10.31;56.95;94869.25;5089333;28;20490;-78
2024/02/27 03:40:04;;;;;;;21.95;12.02;;;;;;;10.34;56.83;94868.41;5088582;28;20565;-78
2024/02/27 03:42:29;;;;;;;20.80;13.27;;;;;;;10.25;57.16;94871.00;5089767;28;20024;-77
2024/02/27 03:44:55;;;;;;;22.23;14.70;;;;;;;10.25;57.03;94870.22;5088132;28;20447;-78
2024/02/27 03:47:20;;;;;;;21.85;13.77;;;;;;;10.06;57.54;94853.47;5089773;28;20028;-78
2024/02/27 03:49:45;;;;;;;19.95;13.75;;;;;;;10.08;57.62;94869.50;5088453;28;20097;-78
2024/02/27 03:52:11;;;;;;;19.90;13.25;;;;;;;10.05;57.50;94865.66;5087816;28;20032;-77
2024/02/27 03:54:36;;;;;;;20.85;13.55;;;;;;;10.04;57.80;94871.59;5087665;28;20460;-78
2024/02/27 03:57:02;;;;;;;20.88;13.35;;;;;;;9.97;58.00;94874.50;5088534;28;20031;-77
2024/02/27 03:59:27;;;;;;;17.92;12.90;;;;;;;10.00;57.87;94881.91;5088937;28;20046;-77
2024/02/27 04:01:52;;;;;;;20.63;12.68;;;;;;;10.02;58.25;94877.50;5087572;28;20374;-77
2024/02/27 04:04:18;;;;;;;22.88;13.02;;;;;;;10.08;57.81;94883.22;5089106;28;20029;-78
2024/02/27 04:06:43;;;;;;;21.58;13.82;;;;;;;10.10;57.56;94881.59;5088017;28;20028;-77
2024/02/27 04:09:09;;;;;;;20.15;13.52;;;;;;;10.09;57.68;94887.50;5088994;28;20027;-77
2024/02/27 04:11:34;;;;;;;20.33;12.93;;;;;;;10.08;57.81;94881.25;5088336;28;20024;-77
2024/02/27 04:14:00;;;;;;;23.25;12.82;;;;;;;10.03;57.70;94875.53;5088504;28;20032;-78
2024/02/27 04:16:25;;;;;;;19.58;13.20;;;;;;;10.15;57.65;94877.56;5088514;28;20158;-77
2024/02/27 04:18:52;;;;;;;18.65;13.55;;;;;;;10.18;57.36;94879.41;5086761;28;20437;-79
2024/02/27 04:21:18;;;;;;;20.65;14.43;;;;;;;10.16;57.37;94881.84;5088587;28;20568;-78
2024/02/27 04:23:43;;;;;;;24.10;14.35;;;;;;;10.21;57.51;94884.06;5087941;28;20142;-77
2024/02/27 04:26:08;;;;;;;19.95;14.13;;;;;;;10.29;57.21;94901.13;5088950;28;20087;-78
2024/02/27 04:28:34;;;;;;;23.92;14.25;;;;;;;10.26;57.35;94891.78;5087619;28;20032;-77
2024/02/27 04:30:59;;;;;;;21.60;13.73;;;;;;;10.28;57.31;94885.84;5088319;28;20464;-78
2024/02/27 04:33:25;;;;;;;23.05;14.55;;;;;;;10.10;57.69;94886.34;5087988;28;20048;-78
2024/02/27 04:35:50;;;;;;;24.70;14.45;;;;;;;10.13;57.84;94896.44;5087606;28;20036;-78
2024/02/27 04:38:16;;;;;;;23.38;14.43;;;;;;;10.06;58.03;94902.13;5088258;28;20110;-79
2024/02/27 04:40:41;;;;;;;23.08;14.77;;;;;;;10.07;58.20;94915.41;5087605;28;20497;-77
2024/02/27 04:43:06;;;;;;;21.25;15.82;;;;;;;10.12;58.02;94919.63;5088414;28;20110;-77
2024/02/27 04:45:32;;;;;;;23.45;16.13;;;;;;;10.06;58.08;94921.34;5085838;28;20031;-78
2024/02/27 04:47:57;;;;;;;24.42;14.75;;;;;;;10.06;58.09;94929.59;5088079;28;20112;-78
2024/02/27 04:50:22;;;;;;;23.88;15.85;;;;;;;10.02;58.41;94926.16;5087621;28;20402;-77
2024/02/27 04:52:48;;;;;;;23.95;14.23;;;;;;;9.94;58.20;94919.34;5087959;28;20024;-79
2024/02/27 04:55:13;;;;;;;23.83;14.73;;;;;;;9.90;58.92;94930.41;5087767;28;20073;-78
2024/02/27 04:57:39;;;;;;;24.00;15.25;;;;;;;9.95;58.60;94929.88;5087458;28;20418;-78
2024/02/27 05:00:06;;;;;;;22.33;15.02;;;;;;;9.94;58.72;94930.31;5088381;28;20030;-77
2024/02/27 05:02:31;;;;;;;22.98;14.18;;;;;;;9.90;58.74;94941.38;5089680;28;20044;-79
2024/02/27 05:04:57;;;;;;;22.90;13.88;;;;;;;9.87;58.78;94938.75;5096845;28;20085;-79
2024/02/27 05:07:22;;;;;;;24.27;13.88;;;;;;;9.76;58.88;94922.53;5091234;28;20028;-78
2024/02/27 05:09:47;;;;;;;21.58;14.00;;;;;;;9.78;58.99;94942.88;5088105;28;20059;-77
2024/02/27 05:12:13;;;;;;;18.42;12.68;;;;;;;9.82;59.01;94935.31;5087459;28;20459;-78
2024/02/27 05:14:38;;;;;;;19.50;13.88;;;;;;;9.85;58.83;94937.19;5087159;28;20016;-78
2024/02/27 05:17:04;;;;;;;21.33;14.38;;;;;;;9.94;58.71;94944.81;5086309;28;20062;-77
2024/02/27 05:19:29;;;;;;;23.88;15.20;;;;;;;9.93;58.66;94948.00;5086634;28;20651;-78
2024/02/27 05:21:55;;;;;;;25.33;14.57;;;;;;;9.93;58.92;94956.25;5087698;28;20405;-78
2024/02/27 05:24:20;;;;;;;23.95;15.05;;;;;;;9.95;58.70;94951.06;5086326;28;20028;-76
2024/02/27 05:26:46;;;;;;;24.58;14.95;;;;;;;9.92;59.08;94952.72;5088146;28;20078;-78
2024/02/27 05:29:11;;;;;;;22.58;15.40;;;;;;;9.95;58.80;94949.09;5086777;28;20451;-77
2024/02/27 05:31:36;;;;;;;29.40;15.50;;;;;;;9.89;59.01;94970.06;5085755;28;20017;-77
2024/02/27 05:34:02;;;;;;;26.70;14.85;;;;;;;9.90;59.00;94957.84;5087287;28;20027;-77
2024/02/27 05:36:28;;;;;;;18.80;12.95;;;;;;;9.96;59.11;94963.59;5086339;28;20027;-77
2024/02/27 05:38:53;;;;;;;20.45;14.20;;;;;;;10.04;58.67;94960.25;5087359;28;20043;-77
2024/02/27 05:41:19;;;;;;;22.58;14.25;;;;;;;10.06;58.70;94968.81;5085678;28;20056;-77
2024/02/27 05:43:45;;;;;;;22.33;14.00;;;;;;;10.09;58.59;94973.47;5087474;28;20024;-77
2024/02/27 05:46:10;;;;;;;25.92;14.15;;;;;;;10.05;58.58;94964.53;5086038;28;20039;-77
2024/02/27 05:48:39;;;;;;;26.30;14.30;;;;;;;10.18;58.45;94977.53;5087449;28;20066;-78
2024/02/27 05:51:05;;;;;;;24.02;15.60;;;;;;;10.26;58.09;94982.44;5086707;28;20383;-81
2024/02/27 05:53:32;;;;;;;23.02;15.40;;;;;;;10.25;58.22;94985.63;5086256;28;20032;-81
2024/02/27 05:55:57;;;;;;;23.95;15.07;;;;;;;10.25;58.28;94977.38;5087448;28;20028;-81
2024/02/27 05:58:23;;;;;;;24.38;15.05;;;;;;;10.27;58.29;94985.97;5085111;28;20571;-81
2024/02/27 06:00:53;;;;;;;23.45;15.05;;;;;;;10.34;58.18;94989.28;5086786;28;20019;-80
2024/02/27 06:03:18;;;;;;;23.17;15.43;;;;;;;10.35;58.09;94993.59;5085691;28;20048;-79
2024/02/27 06:05:45;;;;;;;25.35;15.73;;;;;;;10.31;58.40;94992.91;5087217;28;20035;-80
2024/02/27 06:08:10;;;;;;;23.38;15.65;;;;;;;10.26;58.71;94990.69;5084723;28;20170;-80
2024/02/27 06:10:36;;;;;;;30.50;17.27;;;;;;;10.34;58.55;95000.28;5086473;28;20112;-80
2024/02/27 06:13:02;;;;;;;24.08;15.57;;;;;;;10.34;58.72;95002.28;5086644;28;20059;-81
2024/02/27 06:15:27;;;;;;;25.65;16.55;;;;;;;10.40;58.38;95002.50;5085891;28;20023;-79
2024/02/27 06:17:53;;;;;;;23.02;15.88;;;;;;;10.41;58.29;95004.03;5086634;28;20497;-80
2024/02/27 06:23:03;;;;;;;26.50;16.88;;;;;;;10.53;58.16;95009.59;5085888;28;20434;-81
2024/02/27 06:25:28;;;;;;;26.45;18.73;;;;;;;10.45;58.33;95001.97;5085749;28;20529;-81
2024/02/27 06:27:53;;;;;;;30.13;18.27;;;;;;;10.47;58.44;95010.56;5086351;28;20089;-81
2024/02/27 06:30:19;;;;;;;28.90;17.35;;;;;;;10.47;58.10;95016.06;5086189;28;20105;-80
2024/02/27 06:32:44;;;;;;;29.17;18.20;;;;;;;10.48;58.34;95020.34;5085753;28;20099;-80
2024/02/27 06:35:10;;;;;;;31.08;18.40;;;;;;;10.42;58.35;95019.31;5084851;28;20024;-81
2024/02/27 06:37:35;;;;;;;26.75;18.27;;;;;;;10.45;58.26;95022.00;5085078;28;20172;-81
2024/02/27 06:40:02;;;;;;;33.70;20.02;;;;;;;10.48;58.23;95028.59;5086857;28;20016;-81
2024/02/27 06:42:33;;;;;;;31.33;21.33;;;;;;;10.52;58.22;95035.53;5085474;28;20053;-80
2024/02/27 06:44:58;;;;;;;42.58;23.38;;;;;;;10.55;57.99;95039.38;5086188;28;20142;-80
2024/02/27 06:47:23;;;;;;;42.75;23.85;;;;;;;10.60;57.69;95044.34;5084407;28;20554;-80
2024/02/27 06:49:49;;;;;;;39.03;24.70;;;;;;;10.61;57.62;95041.19;5085636;28;20032;-81
2024/02/27 06:52:14;;;;;;;53.28;31.17;;;;;;;10.69;57.58;95047.25;5084389;28;20486;-80
2024/02/27 06:54:40;;;;;;;56.55;33.03;;;;;;;10.69;57.69;95047.25;5085396;28;20021;-81
2024/02/27 06:57:05;;;;;;;46.42;28.90;;;;;;;10.75;57.57;95064.00;5084912;28;20039;-80
2024/02/27 06:59:31;;;;;;;45.78;27.75;;;;;;;10.79;57.50;95061.91;5085486;28;20099;-81
2024/02/27 07:01:56;;;;;;;42.33;26.33;;;;;;;10.84;57.38;95061.41;5085747;28;20028;-78
2024/02/27 07:04:22;;;;;;;34.25;24.63;;;;;;;10.99;57.17;95062.53;5085587;28;20397;-79
2024/02/27 07:06:47;;;;;;;35.88;24.42;;;;;;;11.09;56.76;95066.94;5085790;28;20066;-80
2024/02/27 07:09:12;;;;;;;40.00;24.08;;;;;;;11.10;56.58;95062.22;5085691;28;20031;-82
2024/02/27 07:11:38;;;;;;;38.10;24.65;;;;;;;11.26;56.45;95059.38;5085260;28;20024;-82
2024/02/27 07:14:04;;;;;;;38.33;24.13;;;;;;;11.39;56.01;95065.66;5085682;28;20510;-81
2024/02/27 07:16:29;;;;;;;40.95;24.65;;;;;;;11.52;55.63;95057.41;5084519;28;20025;-83
2024/02/27 07:18:54;;;;;;;35.78;23.45;;;;;;;11.63;55.48;95065.34;5084777;28;20173;-83
2024/02/27 07:21:20;;;;;;;35.88;22.83;;;;;;;11.76;55.15;95060.63;5084055;28;20023;-83
2024/02/27 07:23:45;;;;;;;29.70;19.85;;;;;;;11.84;54.83;95067.47;5086409;28;20504;-82
2024/02/27 07:26:10;;;;;;;29.88;20.38;;;;;;;11.90;54.73;95062.19;5084866;28;20028;-82
2024/02/27 07:28:36;;;;;;;30.00;18.90;;;;;;;12.00;54.42;95076.84;5085288;28;20086;-82
2024/02/27 07:31:01;;;;;;;30.38;18.17;;;;;;;12.11;54.11;95077.28;5086101;28;20103;-82
2024/02/27 07:33:26;;;;;;;31.35;20.05;;;;;;;12.15;54.05;95075.16;5082833;28;20036;-82
2024/02/27 07:35:52;;;;;;;34.25;20.40;;;;;;;12.31;53.84;95072.25;5085579;28;20540;-82
2024/02/27 07:38:18;;;;;;;34.88;22.48;;;;;;;12.41;53.78;95078.63;5084781;28;20020;-81
2024/02/27 07:40:43;;;;;;;31.30;19.67;;;;;;;12.50;53.37;95067.66;5084657;28;20111;-81
2024/02/27 07:43:09;;;;;;;30.27;18.58;;;;;;;12.64;52.94;95063.66;5085565;28;20020;-81
2024/02/27 07:45:35;;;;;;;29.35;19.02;;;;;;;12.74;52.74;95063.31;5083982;28;20123;-82
2024/02/27 07:48:01;;;;;;;27.10;18.13;;;;;;;12.87;52.58;95071.53;5085596;28;20024;-82
2024/02/27 07:50:26;;;;;;;27.23;19.00;;;;;;;12.96;52.41;95070.81;5084968;28;20028;-82
2024/02/27 07:52:52;;;;;;;29.65;18.98;;;;;;;13.06;51.92;95064.13;5085319;28;20028;-82
2024/02/27 07:55:17;;;;;;;27.17;18.30;;;;;;;13.16;51.69;95065.75;5084795;28;20053;-81
2024/02/27 07:57:43;;;;;;;28.70;18.83;;;;;;;13.29;51.39;95063.69;5085827;28;20051;-82
2024/02/27 08:00:09;;;;;;;28.23;18.90;;;;;;;13.37;51.09;95066.97;5084591;28;20024;-81
2024/02/27 08:02:36;;;;;;;31.35;19.90;;;;;;;13.58;50.70;95059.84;5084992;28;20355;-82
2024/02/27 08:05:03;;;;;;;27.20;17.80;;;;;;;13.66;51.86;95058.38;5085868;28;20486;-80
2024/02/27 08:07:28;;;;;;;27.80;19.52;;;;;;;13.86;50.44;95057.22;5088267;28;20024;-74
2024/02/27 08:09:54;;;;;;;31.23;19.17;;;;;;;14.00;49.65;95053.88;5087417;28;20043;-80
2024/02/27 08:12:19;;;;;;;32.88;20.88;;;;;;;14.18;48.88;95058.69;5086503;28;20032;-81
2024/02/27 08:14:44;;;;;;;29.58;19.45;;;;;;;14.33;48.49;95060.41;5088988;28;20057;-81
2024/02/27 08:17:10;;;;;;;30.42;19.85;;;;;;;14.52;47.87;95057.72;5088514;28;20095;-81
2024/02/27 08:19:39;;;;;;;27.27;19.08;;;;;;;14.73;47.45;95056.78;5088866;28;20406;-82
2024/02/27 08:22:05;;;;;;;24.40;17.63;;;;;;;15.01;46.63;95065.09;5088420;28;20490;-81
2024/02/27 08:24:31;;;;;;;33.97;19.05;;;;;;;15.24;45.77;95069.22;5091711;28;20024;-81
2024/02/27 08:26:57;;;;;;;27.35;17.42;;;;;;;15.55;44.98;95066.22;5096015;28;20024;-82
2024/02/27 08:29:22;;;;;;;25.67;17.55;;;;;;;15.89;43.46;95070.59;5090114;28;20605;-82
2024/02/27 08:31:47;;;;;;;23.30;16.27;;;;;;;16.22;43.17;95065.03;5088789;28;20028;-82
2024/02/27 08:34:13;;;;;;;27.83;15.20;;;;;;;16.58;42.22;95066.84;5087821;28;20032;-82
2024/02/27 08:36:38;;;;;;;23.45;15.57;;;;;;;16.96;41.75;95055.00;5088567;28;20085;-81
2024/02/27 08:39:04;;;;;;;25.52;16.77;;;;;;;17.29;40.40;95061.66;5086472;28;20173;-79
2024/02/27 08:41:29;;;;;;;22.00;15.05;;;;;;;17.72;39.35;95060.94;5087186;28;20035;-82
2024/02/27 08:43:55;;;;;;;26.00;15.57;;;;;;;18.10;39.03;95059.22;5088139;28;20484;-82
2024/02/27 08:46:20;;;;;;;25.60;15.18;;;;;;;18.63;37.83;95071.34;5087695;28;20099;-82
2024/02/27 08:48:46;;;;;;;25.75;16.90;;;;;;;18.99;37.17;95079.16;5088227;28;20395;-80
2024/02/27 08:51:12;;;;;;;27.52;14.90;;;;;;;19.44;36.68;95076.09;5087651;28;20028;-82
2024/02/27 08:53:37;;;;;;;28.85;15.65;;;;;;;19.82;35.55;95075.72;5088129;28;20417;-82
2024/02/27 08:56:06;;;;;;;21.70;14.60;;;;;;;20.27;34.61;95076.06;5087810;28;20074;-80
2024/02/27 08:58:33;;;;;;;21.27;13.52;;;;;;;20.78;32.88;95068.00;5088176;28;20479;-81
2024/02/27 09:00:58;;;;;;;15.63;11.07;;;;;;;21.10;32.50;95063.03;5087698;28;20474;-82
2024/02/27 09:03:24;;;;;;;17.27;11.43;;;;;;;21.48;31.48;95073.59;5087314;28;20040;-81
2024/02/27 09:05:49;;;;;;;20.30;11.73;;;;;;;21.89;31.06;95070.31;5088180;28;20047;-81
2024/02/27 09:08:15;;;;;;;18.95;12.43;;;;;;;22.65;30.15;95065.66;5087524;28;20024;-81
2024/02/27 09:10:43;;;;;;;18.50;12.23;;;;;;;23.26;28.81;95071.06;5088121;28;20024;-81
2024/02/27 09:13:08;;;;;;;20.58;13.95;;;;;;;23.76;28.35;95064.44;5087058;28;20417;-81
2024/02/27 09:15:34;;;;;;;16.83;11.32;;;;;;;24.44;26.91;95070.28;5088014;28;20017;-82
2024/02/27 09:17:59;;;;;;;13.48;10.35;;;;;;;25.19;25.86;95061.28;5086312;28;20082;-81
2024/02/27 09:20:25;;;;;;;14.48;11.82;;;;;;;25.84;24.87;95060.16;5087338;28;20132;-81
2024/02/27 09:22:51;;;;;;;15.73;10.30;;;;;;;26.49;24.29;95066.53;5087404;28;20608;-81
2024/02/27 09:25:16;;;;;;;18.35;11.32;;;;;;;27.27;23.22;95058.63;5086928;28;20020;-81
2024/02/27 09:27:41;;;;;;;16.50;10.80;;;;;;;27.79;22.68;95063.41;5087107;28;20498;-81
2024/02/27 09:30:07;;;;;;;19.17;10.70;;;;;;;28.49;21.60;95062.00;5086691;28;20020;-82
2024/02/27 09:32:33;;;;;;;15.57;10.15;;;;;;;28.94;20.83;95058.03;5086156;28;20379;-81
2024/02/27 09:34:58;;;;;;;13.70;8.32;;;;;;;29.02;20.54;95059.59;5086719;28;20050;-81
2024/02/27 09:37:24;;;;;;;12.38;7.95;;;;;;;29.27;20.06;95054.25;5087323;28;20055;-84
2024/02/27 09:39:49;;;;;;;11.23;8.05;;;;;;;30.02;19.28;95052.25;5085476;28;20020;-82
2024/02/27 09:42:14;;;;;;;12.68;8.00;;;;;;;30.58;18.66;95047.59;5086988;28;20113;-81
2024/02/27 09:44:46;;;;;;;10.60;6.28;;;;;;;30.91;18.12;95042.88;5086948;28;20566;-81
2024/02/27 09:47:14;;;;;;;9.48;6.60;;;;;;;30.97;17.60;95045.50;5085344;28;20036;-81
2024/02/27 09:49:41;;;;;;;11.13;7.13;;;;;;;31.13;17.24;95046.19;5085720;28;20543;-82
2024/02/27 09:52:10;;;;;;;13.63;6.82;;;;;;;31.50;17.32;95038.91;5085184;28;20024;-81
2024/02/27 09:54:37;;;;;;;7.68;6.07;;;;;;;31.81;16.85;95047.31;5087574;28;20024;-81
2024/02/27 09:57:04;;;;;;;9.30;6.00;;;;;;;32.10;16.47;95042.00;5087111;28;20395;-81
2024/02/27 09:59:29;;;;;;;12.18;7.32;;;;;;;32.62;16.36;95042.22;5086561;28;20024;-81
2024/02/27 10:02:12;;;;;;;10.65;5.85;;;;;;;33.17;15.46;95044.00;5085112;28;20077;-80
2024/02/27 10:04:39;;;;;;;9.48;5.15;;;;;;;33.33;15.37;95042.50;5085873;28;20492;-81
2024/02/27 10:07:05;;;;;;;11.35;5.57;;;;;;;33.48;14.91;95042.31;5087047;28;20029;-81
2024/02/27 10:09:35;;;;;;;11.57;5.72;;;;;;;34.06;14.67;95045.56;5084661;28;20039;-81
2024/02/27 10:12:04;;;;;;;9.25;5.30;;;;;;;34.53;14.16;95042.81;5086877;28;20032;-82
2024/02/27 10:14:32;;;;;;;7.15;4.63;;;;;;;34.53;13.78;95037.88;5086205;28;20521;-82
2024/02/27 10:16:57;;;;;;;10.25;4.53;;;;;;;34.54;14.00;95030.06;5084947;28;20035;-82
2024/02/27 10:19:26;;;;;;;11.60;5.35;;;;;;;34.56;14.33;95033.03;5084842;28;20024;-82
2024/02/27 10:21:51;;;;;;;7.38;5.20;;;;;;;34.99;13.96;95027.78;5086068;28;20024;-82
2024/02/27 10:24:29;;;;;;;10.70;4.78;;;;;;;35.57;13.39;95028.56;5086883;28;20026;-82
2024/02/27 10:26:55;;;;;;;9.02;5.32;;;;;;;36.46;13.21;95032.75;5086526;28;20059;-84
2024/02/27 10:29:26;;;;;;;8.80;4.78;;;;;;;37.02;12.78;95020.84;5086632;28;20024;-80
2024/02/27 10:31:51;;;;;;;7.72;5.55;;;;;;;37.63;12.23;95014.22;5086664;28;20542;-81
2024/02/27 10:34:18;;;;;;;8.30;4.22;;;;;;;37.97;11.50;95015.69;5084884;28;20137;-82
2024/02/27 10:36:43;;;;;;;5.40;4.22;;;;;;;38.23;11.41;95019.47;5086492;28;20024;-83
2024/02/27 10:39:10;;;;;;;17.40;5.80;;;;;;;38.55;11.03;95025.03;5085906;28;20058;-81
2024/02/27 10:41:41;;;;;;;12.23;5.28;;;;;;;38.80;11.11;95015.78;5086112;28;20056;-81
2024/02/27 10:44:08;;;;;;;9.07;5.53;;;;;;;38.78;11.08;95017.19;5085712;28;20032;-81
2024/02/27 10:46:35;;;;;;;7.63;4.70;;;;;;;39.08;10.81;95013.88;5084682;28;20716;-81
2024/02/27 10:49:00;;;;;;;11.48;5.57;;;;;;;39.41;10.78;95010.81;5086026;28;20111;-81
2024/02/27 10:51:27;;;;;;;7.40;4.60;;;;;;;39.83;10.33;94996.00;5084069;28;20501;-81
2024/02/27 10:53:55;;;;;;;8.27;5.28;;;;;;;40.07;9.97;94999.50;5086233;28;20077;-81
2024/02/27 10:56:22;;;;;;;7.80;4.63;;;;;;;40.20;9.81;94995.16;5084270;28;20031;-81
2024/02/27 10:58:48;;;;;;;7.85;5.68;;;;;;;40.29;9.85;95002.88;5084613;28;20383;-81
2024/02/27 11:01:14;;;;;;;9.60;5.50;;;;;;;39.81;10.01;94998.78;5083813;28;20467;-80
2024/02/27 11:03:42;;;;;;;7.10;4.80;;;;;;;39.63;10.37;94997.75;5085684;28;20558;-80
2024/02/27 11:06:14;;;;;;;7.70;5.00;;;;;;;39.60;10.21;95001.09;5085813;28;20028;-81
2024/02/27 11:08:41;;;;;;;9.32;5.13;;;;;;;39.71;10.27;95000.34;5085561;28;20032;-81
2024/02/27 11:11:07;;;;;;;7.50;4.68;;;;;;;40.18;10.07;94994.31;5085968;28;20067;-81
2024/02/27 11:13:32;;;;;;;9.48;4.95;;;;;;;40.57;9.75;94995.03;5084101;28;20103;-81
2024/02/27 11:15:59;;;;;;;8.52;5.00;;;;;;;40.95;9.51;94989.06;5085973;28;20383;-81